Terminal Aerodrome Forecast
Issued by NWS

Home | Current Version | Previous Version | Text Only | Print | Product List | Glossary On
Versions: 1 2 3 4 5 6 7 8 9 10 11 12 13 14 15 16 17 18 19 20 21 22 23 24
121
FTUS43 KILX 191748
TAFCMI
TAF
KCMI 191748Z 1918/2018 19005KT P6SM SCT250
     FM200200 15006KT 1 1/2SM BR FEW025
     FM200300 15006KT 1/2SM FG FEW015
     FM200400 15006KT 1/4SM FG SCT010
     FM200700 15006KT 1/4SM FG BKN003
     FM201000 14006KT 1/2SM FG BKN003
     FM201500 15009KT P6SM BKN008
     FM201700 16011KT P6SM BKN050=

USA.gov is the U.S. government's official web portal to all federal, state and local government web resources and services.